sensor_id;sensor_type;location;lat;lon;timestamp;P1;durP1;ratioP1;P2;durP2;ratioP2
49139;SDS011;34959;49.310;8.646;2022-09-17T00:00:45;9.52;;;0.60;;
49139;SDS011;34959;49.310;8.646;2022-09-17T00:03:12;4.85;;;0.50;;
49139;SDS011;34959;49.310;8.646;2022-09-17T00:05:37;2.35;;;0.40;;
49139;SDS011;34959;49.310;8.646;2022-09-17T00:08:06;2.00;;;0.50;;
49139;SDS011;34959;49.310;8.646;2022-09-17T00:10:36;8.73;;;0.73;;
49139;SDS011;34959;49.310;8.646;2022-09-17T00:13:03;3.15;;;0.40;;
49139;SDS011;34959;49.310;8.646;2022-09-17T00:15:29;1.42;;;0.30;;
49139;SDS011;34959;49.310;8.646;2022-09-17T00:17:55;2.25;;;0.45;;
49139;SDS011;34959;49.310;8.646;2022-09-17T00:20:22;2.15;;;0.50;;
49139;SDS011;34959;49.310;8.646;2022-09-17T00:22:51;1.48;;;0.40;;
49139;SDS011;34959;49.310;8.646;2022-09-17T00:25:17;2.47;;;0.47;;
49139;SDS011;34959;49.310;8.646;2022-09-17T00:27:43;1.83;;;0.60;;
49139;SDS011;34959;49.310;8.646;2022-09-17T00:30:09;4.63;;;0.65;;
49139;SDS011;34959;49.310;8.646;2022-09-17T00:32:35;5.75;;;0.45;;
49139;SDS011;34959;49.310;8.646;2022-09-17T00:35:00;2.60;;;0.30;;
49139;SDS011;34959;49.310;8.646;2022-09-17T00:37:26;2.53;;;0.47;;
49139;SDS011;34959;49.310;8.646;2022-09-17T00:39:51;0.98;;;0.28;;
49139;SDS011;34959;49.310;8.646;2022-09-17T00:42:17;3.17;;;0.40;;
49139;SDS011;34959;49.310;8.646;2022-09-17T00:44:45;0.93;;;0.30;;
49139;SDS011;34959;49.310;8.646;2022-09-17T00:47:20;1.52;;;0.50;;
49139;SDS011;34959;49.310;8.646;2022-09-17T00:49:50;1.55;;;0.30;;
49139;SDS011;34959;49.310;8.646;2022-09-17T00:52:32;0.88;;;0.47;;
49139;SDS011;34959;49.310;8.646;2022-09-17T00:55:16;1.58;;;0.50;;
49139;SDS011;34959;49.310;8.646;2022-09-17T00:58:01;1.00;;;0.30;;
49139;SDS011;34959;49.310;8.646;2022-09-17T01:00:28;0.63;;;0.20;;
49139;SDS011;34959;49.310;8.646;2022-09-17T01:02:55;1.52;;;0.50;;
49139;SDS011;34959;49.310;8.646;2022-09-17T01:05:23;0.98;;;0.30;;
49139;SDS011;34959;49.310;8.646;2022-09-17T01:08:39;0.93;;;0.30;;
49139;SDS011;34959;49.310;8.646;2022-09-17T01:11:04;1.85;;;0.60;;
49139;SDS011;34959;49.310;8.646;2022-09-17T01:13:33;1.23;;;0.57;;
49139;SDS011;34959;49.310;8.646;2022-09-17T01:16:19;0.70;;;0.30;;
49139;SDS011;34959;49.310;8.646;2022-09-17T01:22:02;1.50;;;0.38;;
49139;SDS011;34959;49.310;8.646;2022-09-17T01:30:10;3.15;;;0.30;;
49139;SDS011;34959;49.310;8.646;2022-09-17T01:38:10;3.50;;;0.57;;
49139;SDS011;34959;49.310;8.646;2022-09-17T01:40:41;0.95;;;0.30;;
49139;SDS011;34959;49.310;8.646;2022-09-17T01:43:34;0.98;;;0.32;;
49139;SDS011;34959;49.310;8.646;2022-09-17T01:46:17;0.70;;;0.30;;
49139;SDS011;34959;49.310;8.646;2022-09-17T01:48:46;1.90;;;0.30;;
49139;SDS011;34959;49.310;8.646;2022-09-17T01:51:14;1.80;;;0.32;;
49139;SDS011;34959;49.310;8.646;2022-09-17T01:53:52;0.35;;;0.20;;
49139;SDS011;34959;49.310;8.646;2022-09-17T01:56:25;0.90;;;0.20;;
49139;SDS011;34959;49.310;8.646;2022-09-17T01:58:59;1.33;;;0.45;;
49139;SDS011;34959;49.310;8.646;2022-09-17T02:01:28;0.77;;;0.30;;
49139;SDS011;34959;49.310;8.646;2022-09-17T02:03:58;0.85;;;0.38;;
49139;SDS011;34959;49.310;8.646;2022-09-17T02:06:28;0.55;;;0.28;;
49139;SDS011;34959;49.310;8.646;2022-09-17T02:09:04;1.13;;;0.30;;
49139;SDS011;34959;49.310;8.646;2022-09-17T02:11:34;0.77;;;0.30;;
49139;SDS011;34959;49.310;8.646;2022-09-17T02:14:02;1.50;;;0.30;;
49139;SDS011;34959;49.310;8.646;2022-09-17T02:16:32;0.95;;;0.30;;
49139;SDS011;34959;49.310;8.646;2022-09-17T02:19:08;0.40;;;0.20;;
49139;SDS011;34959;49.310;8.646;2022-09-17T02:21:42;1.52;;;0.40;;
49139;SDS011;34959;49.310;8.646;2022-09-17T02:24:15;0.45;;;0.30;;
49139;SDS011;34959;49.310;8.646;2022-09-17T02:26:44;0.77;;;0.20;;
49139;SDS011;34959;49.310;8.646;2022-09-17T02:29:15;1.02;;;0.28;;
49139;SDS011;34959;49.310;8.646;2022-09-17T02:31:46;1.10;;;0.20;;
49139;SDS011;34959;49.310;8.646;2022-09-17T02:34:12;1.30;;;0.20;;
49139;SDS011;34959;49.310;8.646;2022-09-17T02:36:37;0.55;;;0.25;;
49139;SDS011;34959;49.310;8.646;2022-09-17T02:39:03;0.77;;;0.20;;
49139;SDS011;34959;49.310;8.646;2022-09-17T02:41:35;0.45;;;0.30;;
49139;SDS011;34959;49.310;8.646;2022-09-17T02:49:47;0.80;;;0.30;;
49139;SDS011;34959;49.310;8.646;2022-09-17T02:55:24;0.75;;;0.30;;
49139;SDS011;34959;49.310;8.646;2022-09-17T02:58:01;2.17;;;0.30;;
49139;SDS011;34959;49.310;8.646;2022-09-17T03:00:46;1.05;;;0.25;;
49139;SDS011;34959;49.310;8.646;2022-09-17T03:05:40;1.40;;;0.30;;
49139;SDS011;34959;49.310;8.646;2022-09-17T03:08:07;2.03;;;0.40;;
49139;SDS011;34959;49.310;8.646;2022-09-17T03:10:33;1.20;;;0.35;;
49139;SDS011;34959;49.310;8.646;2022-09-17T03:12:59;0.80;;;0.30;;
49139;SDS011;34959;49.310;8.646;2022-09-17T03:15:24;0.60;;;0.30;;
49139;SDS011;34959;49.310;8.646;2022-09-17T03:17:50;2.92;;;0.40;;
49139;SDS011;34959;49.310;8.646;2022-09-17T03:20:15;2.45;;;0.50;;
49139;SDS011;34959;49.310;8.646;2022-09-17T03:22:41;1.38;;;0.35;;
49139;SDS011;34959;49.310;8.646;2022-09-17T03:25:07;1.58;;;0.38;;
49139;SDS011;34959;49.310;8.646;2022-09-17T03:27:33;2.42;;;0.40;;
49139;SDS011;34959;49.310;8.646;2022-09-17T03:29:58;1.30;;;0.30;;
49139;SDS011;34959;49.310;8.646;2022-09-17T03:32:24;1.40;;;0.40;;
49139;SDS011;34959;49.310;8.646;2022-09-17T03:34:49;0.32;;;0.20;;
49139;SDS011;34959;49.310;8.646;2022-09-17T03:37:14;1.23;;;0.30;;
49139;SDS011;34959;49.310;8.646;2022-09-17T03:39:40;0.47;;;0.20;;
49139;SDS011;34959;49.310;8.646;2022-09-17T03:42:05;0.65;;;0.35;;
49139;SDS011;34959;49.310;8.646;2022-09-17T03:44:31;0.90;;;0.40;;
49139;SDS011;34959;49.310;8.646;2022-09-17T03:46:56;1.15;;;0.40;;
49139;SDS011;34959;49.310;8.646;2022-09-17T03:49:22;0.65;;;0.30;;
49139;SDS011;34959;49.310;8.646;2022-09-17T03:51:48;0.60;;;0.30;;
49139;SDS011;34959;49.310;8.646;2022-09-17T03:54:13;0.52;;;0.28;;
49139;SDS011;34959;49.310;8.646;2022-09-17T03:56:39;0.77;;;0.22;;
49139;SDS011;34959;49.310;8.646;2022-09-17T03:59:04;0.35;;;0.20;;
49139;SDS011;34959;49.310;8.646;2022-09-17T04:01:30;4.78;;;0.20;;
49139;SDS011;34959;49.310;8.646;2022-09-17T04:03:55;1.77;;;0.40;;
49139;SDS011;34959;49.310;8.646;2022-09-17T04:06:21;1.42;;;0.30;;
49139;SDS011;34959;49.310;8.646;2022-09-17T04:08:46;1.48;;;0.30;;
49139;SDS011;34959;49.310;8.646;2022-09-17T04:11:12;1.95;;;0.30;;
49139;SDS011;34959;49.310;8.646;2022-09-17T04:13:37;2.92;;;0.30;;
49139;SDS011;34959;49.310;8.646;2022-09-17T04:16:03;3.20;;;0.40;;
49139;SDS011;34959;49.310;8.646;2022-09-17T04:18:28;2.70;;;0.40;;
49139;SDS011;34959;49.310;8.646;2022-09-17T04:20:55;0.50;;;0.20;;
49139;SDS011;34959;49.310;8.646;2022-09-17T04:23:20;2.25;;;0.47;;
49139;SDS011;34959;49.310;8.646;2022-09-17T04:25:46;0.47;;;0.30;;
49139;SDS011;34959;49.310;8.646;2022-09-17T04:28:11;0.85;;;0.43;;
49139;SDS011;34959;49.310;8.646;2022-09-17T04:30:37;0.57;;;0.30;;
49139;SDS011;34959;49.310;8.646;2022-09-17T04:33:03;4.90;;;0.40;;
49139;SDS011;34959;49.310;8.646;2022-09-17T04:35:28;1.38;;;0.38;;
49139;SDS011;34959;49.310;8.646;2022-09-17T04:37:54;3.10;;;0.30;;
49139;SDS011;34959;49.310;8.646;2022-09-17T04:40:21;1.98;;;0.40;;
49139;SDS011;34959;49.310;8.646;2022-09-17T04:42:47;3.78;;;0.30;;
49139;SDS011;34959;49.310;8.646;2022-09-17T04:45:13;1.85;;;0.30;;
49139;SDS011;34959;49.310;8.646;2022-09-17T04:47:39;2.45;;;0.35;;
49139;SDS011;34959;49.310;8.646;2022-09-17T04:50:04;0.70;;;0.28;;
49139;SDS011;34959;49.310;8.646;2022-09-17T04:52:30;0.63;;;0.20;;
49139;SDS011;34959;49.310;8.646;2022-09-17T04:54:56;1.10;;;0.22;;
49139;SDS011;34959;49.310;8.646;2022-09-17T04:57:21;1.27;;;0.32;;
49139;SDS011;34959;49.310;8.646;2022-09-17T04:59:49;5.35;;;0.57;;
49139;SDS011;34959;49.310;8.646;2022-09-17T05:02:15;2.20;;;0.30;;
49139;SDS011;34959;49.310;8.646;2022-09-17T05:04:40;1.65;;;0.50;;
49139;SDS011;34959;49.310;8.646;2022-09-17T05:07:06;0.77;;;0.40;;
49139;SDS011;34959;49.310;8.646;2022-09-17T05:09:31;0.55;;;0.20;;
49139;SDS011;34959;49.310;8.646;2022-09-17T05:11:56;1.98;;;0.38;;
49139;SDS011;34959;49.310;8.646;2022-09-17T05:14:22;1.55;;;0.40;;
49139;SDS011;34959;49.310;8.646;2022-09-17T05:16:47;0.55;;;0.20;;
49139;SDS011;34959;49.310;8.646;2022-09-17T05:19:13;0.57;;;0.20;;
49139;SDS011;34959;49.310;8.646;2022-09-17T05:21:38;0.45;;;0.20;;
49139;SDS011;34959;49.310;8.646;2022-09-17T05:24:03;1.80;;;0.40;;
49139;SDS011;34959;49.310;8.646;2022-09-17T05:26:29;0.80;;;0.20;;
49139;SDS011;34959;49.310;8.646;2022-09-17T05:28:54;1.20;;;0.40;;
49139;SDS011;34959;49.310;8.646;2022-09-17T05:31:20;0.80;;;0.30;;
49139;SDS011;34959;49.310;8.646;2022-09-17T05:33:45;2.58;;;0.25;;
49139;SDS011;34959;49.310;8.646;2022-09-17T05:36:10;1.55;;;0.20;;
49139;SDS011;34959;49.310;8.646;2022-09-17T05:38:36;0.30;;;0.20;;
49139;SDS011;34959;49.310;8.646;2022-09-17T05:41:03;0.75;;;0.20;;
49139;SDS011;34959;49.310;8.646;2022-09-17T05:43:30;0.98;;;0.30;;
49139;SDS011;34959;49.310;8.646;2022-09-17T05:45:59;0.80;;;0.30;;
49139;SDS011;34959;49.310;8.646;2022-09-17T05:48:25;1.05;;;0.28;;
49139;SDS011;34959;49.310;8.646;2022-09-17T05:50:50;0.45;;;0.30;;
49139;SDS011;34959;49.310;8.646;2022-09-17T05:53:16;0.68;;;0.20;;
49139;SDS011;34959;49.310;8.646;2022-09-17T05:55:41;1.70;;;0.30;;
49139;SDS011;34959;49.310;8.646;2022-09-17T05:58:08;0.90;;;0.30;;
49139;SDS011;34959;49.310;8.646;2022-09-17T06:00:35;1.02;;;0.22;;
49139;SDS011;34959;49.310;8.646;2022-09-17T06:03:00;0.50;;;0.22;;
49139;SDS011;34959;49.310;8.646;2022-09-17T06:05:26;0.88;;;0.30;;
49139;SDS011;34959;49.310;8.646;2022-09-17T06:07:51;1.50;;;0.30;;
49139;SDS011;34959;49.310;8.646;2022-09-17T06:10:17;0.75;;;0.25;;
49139;SDS011;34959;49.310;8.646;2022-09-17T06:12:42;1.48;;;0.20;;
49139;SDS011;34959;49.310;8.646;2022-09-17T06:15:07;0.60;;;0.20;;
49139;SDS011;34959;49.310;8.646;2022-09-17T06:17:34;0.40;;;0.30;;
49139;SDS011;34959;49.310;8.646;2022-09-17T06:20:00;3.30;;;0.30;;
49139;SDS011;34959;49.310;8.646;2022-09-17T06:22:26;1.20;;;0.32;;
49139;SDS011;34959;49.310;8.646;2022-09-17T06:24:54;0.70;;;0.35;;
49139;SDS011;34959;49.310;8.646;2022-09-17T06:27:20;0.57;;;0.25;;
49139;SDS011;34959;49.310;8.646;2022-09-17T06:29:45;0.85;;;0.10;;
49139;SDS011;34959;49.310;8.646;2022-09-17T06:32:10;2.22;;;0.20;;
49139;SDS011;34959;49.310;8.646;2022-09-17T06:34:37;1.60;;;0.30;;
49139;SDS011;34959;49.310;8.646;2022-09-17T06:37:03;0.65;;;0.30;;
49139;SDS011;34959;49.310;8.646;2022-09-17T06:39:30;0.93;;;0.50;;
49139;SDS011;34959;49.310;8.646;2022-09-17T06:41:55;1.23;;;0.45;;
49139;SDS011;34959;49.310;8.646;2022-09-17T06:44:20;1.95;;;0.50;;
49139;SDS011;34959;49.310;8.646;2022-09-17T06:46:48;1.48;;;0.40;;
49139;SDS011;34959;49.310;8.646;2022-09-17T06:49:13;1.33;;;0.50;;
49139;SDS011;34959;49.310;8.646;2022-09-17T06:51:43;2.13;;;0.38;;
49139;SDS011;34959;49.310;8.646;2022-09-17T06:54:08;2.05;;;0.30;;
49139;SDS011;34959;49.310;8.646;2022-09-17T06:56:34;2.08;;;0.50;;
49139;SDS011;34959;49.310;8.646;2022-09-17T06:59:00;2.03;;;0.60;;
49139;SDS011;34959;49.310;8.646;2022-09-17T07:01:25;2.28;;;0.52;;
49139;SDS011;34959;49.310;8.646;2022-09-17T07:03:51;1.90;;;0.32;;
49139;SDS011;34959;49.310;8.646;2022-09-17T07:06:16;2.25;;;0.60;;
49139;SDS011;34959;49.310;8.646;2022-09-17T07:08:42;2.50;;;0.40;;
49139;SDS011;34959;49.310;8.646;2022-09-17T07:11:07;1.67;;;0.38;;
49139;SDS011;34959;49.310;8.646;2022-09-17T07:13:33;1.85;;;0.40;;
49139;SDS011;34959;49.310;8.646;2022-09-17T07:15:59;2.35;;;0.50;;
49139;SDS011;34959;49.310;8.646;2022-09-17T07:18:26;1.42;;;0.52;;
49139;SDS011;34959;49.310;8.646;2022-09-17T07:20:52;1.85;;;0.70;;
49139;SDS011;34959;49.310;8.646;2022-09-17T07:23:19;1.75;;;0.63;;
49139;SDS011;34959;49.310;8.646;2022-09-17T07:25:50;1.23;;;0.57;;
49139;SDS011;34959;49.310;8.646;2022-09-17T07:28:16;1.40;;;0.40;;
49139;SDS011;34959;49.310;8.646;2022-09-17T07:30:41;0.65;;;0.40;;
49139;SDS011;34959;49.310;8.646;2022-09-17T07:33:07;2.83;;;0.60;;
49139;SDS011;34959;49.310;8.646;2022-09-17T07:35:32;2.03;;;0.52;;
49139;SDS011;34959;49.310;8.646;2022-09-17T07:37:58;10.00;;;0.98;;
49139;SDS011;34959;49.310;8.646;2022-09-17T07:40:23;4.82;;;0.55;;
49139;SDS011;34959;49.310;8.646;2022-09-17T07:42:49;2.80;;;0.55;;
49139;SDS011;34959;49.310;8.646;2022-09-17T07:45:14;2.38;;;0.60;;
49139;SDS011;34959;49.310;8.646;2022-09-17T07:47:40;2.88;;;0.50;;
49139;SDS011;34959;49.310;8.646;2022-09-17T07:50:06;2.53;;;0.60;;
49139;SDS011;34959;49.310;8.646;2022-09-17T07:52:32;2.50;;;0.70;;
49139;SDS011;34959;49.310;8.646;2022-09-17T07:54:58;1.55;;;0.70;;
49139;SDS011;34959;49.310;8.646;2022-09-17T07:57:23;4.18;;;0.68;;
49139;SDS011;34959;49.310;8.646;2022-09-17T07:59:48;2.75;;;0.70;;
49139;SDS011;34959;49.310;8.646;2022-09-17T08:02:14;2.60;;;0.70;;
49139;SDS011;34959;49.310;8.646;2022-09-17T08:04:42;2.65;;;0.60;;
49139;SDS011;34959;49.310;8.646;2022-09-17T08:07:11;1.80;;;0.55;;
49139;SDS011;34959;49.310;8.646;2022-09-17T08:09:37;3.63;;;0.70;;
49139;SDS011;34959;49.310;8.646;2022-09-17T08:12:03;1.42;;;0.70;;
49139;SDS011;34959;49.310;8.646;2022-09-17T08:14:29;2.13;;;0.70;;
49139;SDS011;34959;49.310;8.646;2022-09-17T08:16:54;2.25;;;0.63;;
49139;SDS011;34959;49.310;8.646;2022-09-17T08:19:19;1.33;;;0.60;;
49139;SDS011;34959;49.310;8.646;2022-09-17T08:21:45;1.58;;;0.43;;
49139;SDS011;34959;49.310;8.646;2022-09-17T08:24:11;2.55;;;0.73;;
49139;SDS011;34959;49.310;8.646;2022-09-17T08:26:36;2.53;;;0.70;;
49139;SDS011;34959;49.310;8.646;2022-09-17T08:29:02;1.75;;;0.60;;
49139;SDS011;34959;49.310;8.646;2022-09-17T08:31:28;2.05;;;0.60;;
49139;SDS011;34959;49.310;8.646;2022-09-17T08:33:54;2.63;;;0.70;;
49139;SDS011;34959;49.310;8.646;2022-09-17T08:36:20;0.73;;;0.40;;
49139;SDS011;34959;49.310;8.646;2022-09-17T08:38:47;2.10;;;0.50;;
49139;SDS011;34959;49.310;8.646;2022-09-17T08:46:50;2.30;;;0.90;;
49139;SDS011;34959;49.310;8.646;2022-09-17T08:55:04;4.03;;;1.30;;
49139;SDS011;34959;49.310;8.646;2022-09-17T08:57:49;12.50;;;1.40;;
49139;SDS011;34959;49.310;8.646;2022-09-17T09:01:23;5.47;;;1.20;;
49139;SDS011;34959;49.310;8.646;2022-09-17T09:06:30;5.63;;;1.23;;
49139;SDS011;34959;49.310;8.646;2022-09-17T09:08:59;3.83;;;1.05;;
49139;SDS011;34959;49.310;8.646;2022-09-17T09:11:28;6.45;;;1.10;;
49139;SDS011;34959;49.310;8.646;2022-09-17T09:13:57;4.10;;;0.82;;
49139;SDS011;34959;49.310;8.646;2022-09-17T09:16:29;3.92;;;1.20;;
49139;SDS011;34959;49.310;8.646;2022-09-17T09:19:03;4.68;;;1.30;;
49139;SDS011;34959;49.310;8.646;2022-09-17T09:21:40;3.80;;;1.13;;
49139;SDS011;34959;49.310;8.646;2022-09-17T09:24:41;3.50;;;0.95;;
49139;SDS011;34959;49.310;8.646;2022-09-17T09:29:52;4.05;;;0.98;;
49139;SDS011;34959;49.310;8.646;2022-09-17T09:35:21;4.38;;;1.00;;
49139;SDS011;34959;49.310;8.646;2022-09-17T09:40:32;4.13;;;1.10;;
49139;SDS011;34959;49.310;8.646;2022-09-17T09:43:03;3.85;;;0.95;;
49139;SDS011;34959;49.310;8.646;2022-09-17T09:45:57;3.25;;;0.93;;
49139;SDS011;34959;49.310;8.646;2022-09-17T09:48:34;5.15;;;1.20;;
49139;SDS011;34959;49.310;8.646;2022-09-17T09:51:11;3.92;;;0.90;;
49139;SDS011;34959;49.310;8.646;2022-09-17T09:53:47;4.13;;;1.00;;
49139;SDS011;34959;49.310;8.646;2022-09-17T09:59:10;5.60;;;1.00;;
49139;SDS011;34959;49.310;8.646;2022-09-17T10:01:37;2.75;;;1.00;;
49139;SDS011;34959;49.310;8.646;2022-09-17T10:06:41;6.78;;;1.10;;
49139;SDS011;34959;49.310;8.646;2022-09-17T10:09:08;3.78;;;1.02;;
49139;SDS011;34959;49.310;8.646;2022-09-17T10:11:33;3.15;;;0.80;;
49139;SDS011;34959;49.310;8.646;2022-09-17T10:14:20;2.60;;;0.85;;
49139;SDS011;34959;49.310;8.646;2022-09-17T10:19:37;2.40;;;0.80;;
49139;SDS011;34959;49.310;8.646;2022-09-17T10:25:02;4.30;;;0.90;;
49139;SDS011;34959;49.310;8.646;2022-09-17T10:27:30;2.75;;;0.65;;
49139;SDS011;34959;49.310;8.646;2022-09-17T10:30:01;2.08;;;0.77;;
49139;SDS011;34959;49.310;8.646;2022-09-17T10:32:32;3.58;;;0.88;;
49139;SDS011;34959;49.310;8.646;2022-09-17T10:35:13;6.10;;;0.98;;
49139;SDS011;34959;49.310;8.646;2022-09-17T10:37:50;2.25;;;0.80;;
49139;SDS011;34959;49.310;8.646;2022-09-17T10:42:42;3.15;;;0.80;;
49139;SDS011;34959;49.310;8.646;2022-09-17T10:45:10;6.05;;;1.00;;
49139;SDS011;34959;49.310;8.646;2022-09-17T10:47:48;3.03;;;0.90;;
49139;SDS011;34959;49.310;8.646;2022-09-17T10:50:18;5.97;;;0.90;;
49139;SDS011;34959;49.310;8.646;2022-09-17T10:52:55;13.98;;;1.98;;
49139;SDS011;34959;49.310;8.646;2022-09-17T11:00:33;14.85;;;1.63;;
49139;SDS011;34959;49.310;8.646;2022-09-17T11:08:47;9.23;;;1.60;;
49139;SDS011;34959;49.310;8.646;2022-09-17T11:19:31;4.95;;;1.38;;
49139;SDS011;34959;49.310;8.646;2022-09-17T11:27:16;5.90;;;1.55;;
49139;SDS011;34959;49.310;8.646;2022-09-17T11:32:55;4.07;;;1.17;;
49139;SDS011;34959;49.310;8.646;2022-09-17T11:35:34;4.88;;;1.35;;
49139;SDS011;34959;49.310;8.646;2022-09-17T11:38:07;5.00;;;0.90;;
49139;SDS011;34959;49.310;8.646;2022-09-17T11:40:39;3.00;;;0.80;;
49139;SDS011;34959;49.310;8.646;2022-09-17T11:45:58;3.85;;;0.93;;
49139;SDS011;34959;49.310;8.646;2022-09-17T11:48:31;4.05;;;1.00;;
49139;SDS011;34959;49.310;8.646;2022-09-17T11:53:42;2.38;;;0.90;;
49139;SDS011;34959;49.310;8.646;2022-09-17T11:56:18;5.68;;;1.10;;
49139;SDS011;34959;49.310;8.646;2022-09-17T11:58:47;4.20;;;0.90;;
49139;SDS011;34959;49.310;8.646;2022-09-17T12:01:24;6.07;;;0.90;;
49139;SDS011;34959;49.310;8.646;2022-09-17T12:04:09;3.08;;;0.93;;
49139;SDS011;34959;49.310;8.646;2022-09-17T12:07:01;4.82;;;0.75;;
49139;SDS011;34959;49.310;8.646;2022-09-17T12:09:35;3.80;;;0.80;;
49139;SDS011;34959;49.310;8.646;2022-09-17T12:12:22;3.35;;;0.90;;
49139;SDS011;34959;49.310;8.646;2022-09-17T12:14:53;3.60;;;1.20;;
49139;SDS011;34959;49.310;8.646;2022-09-17T12:17:33;2.33;;;0.80;;
49139;SDS011;34959;49.310;8.646;2022-09-17T12:20:07;3.17;;;0.98;;
49139;SDS011;34959;49.310;8.646;2022-09-17T12:22:42;3.38;;;0.93;;
49139;SDS011;34959;49.310;8.646;2022-09-17T12:25:10;2.55;;;0.80;;
49139;SDS011;34959;49.310;8.646;2022-09-17T12:27:47;3.60;;;0.98;;
49139;SDS011;34959;49.310;8.646;2022-09-17T12:30:28;2.33;;;0.90;;
49139;SDS011;34959;49.310;8.646;2022-09-17T12:36:05;2.63;;;0.85;;
49139;SDS011;34959;49.310;8.646;2022-09-17T12:41:33;2.28;;;0.65;;
49139;SDS011;34959;49.310;8.646;2022-09-17T12:55:28;1.95;;;0.75;;
49139;SDS011;34959;49.310;8.646;2022-09-17T13:03:29;3.25;;;0.70;;
49139;SDS011;34959;49.310;8.646;2022-09-17T13:08:43;3.25;;;0.73;;
49139;SDS011;34959;49.310;8.646;2022-09-17T13:14:14;2.10;;;0.52;;
49139;SDS011;34959;49.310;8.646;2022-09-17T13:16:49;3.92;;;0.75;;
49139;SDS011;34959;49.310;8.646;2022-09-17T13:22:18;1.63;;;0.60;;
49139;SDS011;34959;49.310;8.646;2022-09-17T13:24:45;1.63;;;0.63;;
49139;SDS011;34959;49.310;8.646;2022-09-17T13:27:21;2.17;;;0.73;;
49139;SDS011;34959;49.310;8.646;2022-09-17T13:37:31;1.92;;;0.50;;
49139;SDS011;34959;49.310;8.646;2022-09-17T13:39:58;1.10;;;0.50;;
49139;SDS011;34959;49.310;8.646;2022-09-17T13:42:28;0.88;;;0.50;;
49139;SDS011;34959;49.310;8.646;2022-09-17T13:47:36;1.10;;;0.50;;
49139;SDS011;34959;49.310;8.646;2022-09-17T13:50:07;3.88;;;0.60;;
49139;SDS011;34959;49.310;8.646;2022-09-17T13:55:03;1.20;;;0.40;;
49139;SDS011;34959;49.310;8.646;2022-09-17T13:57:29;1.38;;;0.55;;
49139;SDS011;34959;49.310;8.646;2022-09-17T13:59:57;2.28;;;0.70;;
49139;SDS011;34959;49.310;8.646;2022-09-17T14:02:31;1.73;;;0.60;;
49139;SDS011;34959;49.310;8.646;2022-09-17T14:08:04;2.13;;;0.68;;
49139;SDS011;34959;49.310;8.646;2022-09-17T14:10:40;1.63;;;0.45;;
49139;SDS011;34959;49.310;8.646;2022-09-17T14:13:25;2.97;;;0.70;;
49139;SDS011;34959;49.310;8.646;2022-09-17T14:15:58;1.60;;;0.60;;
49139;SDS011;34959;49.310;8.646;2022-09-17T14:20:52;1.13;;;0.40;;
49139;SDS011;34959;49.310;8.646;2022-09-17T14:23:19;2.15;;;0.40;;
49139;SDS011;34959;49.310;8.646;2022-09-17T14:25:49;2.08;;;0.57;;
49139;SDS011;34959;49.310;8.646;2022-09-17T14:30:44;1.95;;;0.70;;
49139;SDS011;34959;49.310;8.646;2022-09-17T14:33:13;1.60;;;0.70;;
49139;SDS011;34959;49.310;8.646;2022-09-17T14:35:44;1.83;;;0.47;;
49139;SDS011;34959;49.310;8.646;2022-09-17T14:38:21;1.45;;;0.60;;
49139;SDS011;34959;49.310;8.646;2022-09-17T14:41:23;1.77;;;0.60;;
49139;SDS011;34959;49.310;8.646;2022-09-17T14:46:42;0.85;;;0.52;;
49139;SDS011;34959;49.310;8.646;2022-09-17T14:51:43;1.45;;;0.45;;
49139;SDS011;34959;49.310;8.646;2022-09-17T14:54:28;1.60;;;0.52;;
49139;SDS011;34959;49.310;8.646;2022-09-17T14:56:59;1.38;;;0.50;;
49139;SDS011;34959;49.310;8.646;2022-09-17T14:59:32;1.48;;;0.40;;
49139;SDS011;34959;49.310;8.646;2022-09-17T15:07:23;1.13;;;0.57;;
49139;SDS011;34959;49.310;8.646;2022-09-17T15:09:49;1.88;;;0.50;;
49139;SDS011;34959;49.310;8.646;2022-09-17T15:12:19;1.95;;;0.70;;
49139;SDS011;34959;49.310;8.646;2022-09-17T15:14:48;1.90;;;0.50;;
49139;SDS011;34959;49.310;8.646;2022-09-17T15:17:14;1.70;;;0.52;;
49139;SDS011;34959;49.310;8.646;2022-09-17T15:19:41;1.17;;;0.70;;
49139;SDS011;34959;49.310;8.646;2022-09-17T15:22:26;1.65;;;0.45;;
49139;SDS011;34959;49.310;8.646;2022-09-17T15:24:57;1.83;;;0.50;;
49139;SDS011;34959;49.310;8.646;2022-09-17T15:32:51;1.80;;;0.60;;
49139;SDS011;34959;49.310;8.646;2022-09-17T15:35:28;1.08;;;0.40;;
49139;SDS011;34959;49.310;8.646;2022-09-17T15:37:55;1.15;;;0.40;;
49139;SDS011;34959;49.310;8.646;2022-09-17T15:43:13;0.77;;;0.40;;
49139;SDS011;34959;49.310;8.646;2022-09-17T15:45:41;1.30;;;0.43;;
49139;SDS011;34959;49.310;8.646;2022-09-17T15:48:40;1.45;;;0.47;;
49139;SDS011;34959;49.310;8.646;2022-09-17T15:51:04;1.17;;;0.30;;
49139;SDS011;34959;49.310;8.646;2022-09-17T15:53:35;1.05;;;0.40;;
49139;SDS011;34959;49.310;8.646;2022-09-17T15:58:33;0.45;;;0.30;;
49139;SDS011;34959;49.310;8.646;2022-09-17T16:08:42;1.25;;;0.40;;
49139;SDS011;34959;49.310;8.646;2022-09-17T16:11:11;1.50;;;0.45;;
49139;SDS011;34959;49.310;8.646;2022-09-17T16:13:37;1.38;;;0.38;;
49139;SDS011;34959;49.310;8.646;2022-09-17T16:16:02;1.83;;;0.50;;
49139;SDS011;34959;49.310;8.646;2022-09-17T16:18:28;0.77;;;0.40;;
49139;SDS011;34959;49.310;8.646;2022-09-17T16:20:53;0.75;;;0.35;;
49139;SDS011;34959;49.310;8.646;2022-09-17T16:23:19;0.98;;;0.30;;
49139;SDS011;34959;49.310;8.646;2022-09-17T16:25:44;1.00;;;0.40;;
49139;SDS011;34959;49.310;8.646;2022-09-17T16:28:11;1.08;;;0.40;;
49139;SDS011;34959;49.310;8.646;2022-09-17T16:30:39;0.93;;;0.30;;
49139;SDS011;34959;49.310;8.646;2022-09-17T16:33:05;1.20;;;0.38;;
49139;SDS011;34959;49.310;8.646;2022-09-17T16:35:31;0.88;;;0.43;;
49139;SDS011;34959;49.310;8.646;2022-09-17T16:37:56;1.00;;;0.40;;
49139;SDS011;34959;49.310;8.646;2022-09-17T16:40:23;1.08;;;0.45;;
49139;SDS011;34959;49.310;8.646;2022-09-17T16:42:51;1.27;;;0.50;;
49139;SDS011;34959;49.310;8.646;2022-09-17T16:45:17;1.08;;;0.38;;
49139;SDS011;34959;49.310;8.646;2022-09-17T16:47:42;1.42;;;0.50;;
49139;SDS011;34959;49.310;8.646;2022-09-17T16:50:09;0.98;;;0.43;;
49139;SDS011;34959;49.310;8.646;2022-09-17T16:52:36;1.73;;;0.52;;
49139;SDS011;34959;49.310;8.646;2022-09-17T16:55:02;1.17;;;0.40;;
49139;SDS011;34959;49.310;8.646;2022-09-17T16:57:29;1.00;;;0.43;;
49139;SDS011;34959;49.310;8.646;2022-09-17T16:59:55;2.50;;;0.30;;
49139;SDS011;34959;49.310;8.646;2022-09-17T17:02:21;1.27;;;0.45;;
49139;SDS011;34959;49.310;8.646;2022-09-17T17:04:46;0.77;;;0.40;;
49139;SDS011;34959;49.310;8.646;2022-09-17T17:07:12;0.95;;;0.40;;
49139;SDS011;34959;49.310;8.646;2022-09-17T17:09:37;0.98;;;0.40;;
49139;SDS011;34959;49.310;8.646;2022-09-17T17:12:03;1.30;;;0.40;;
49139;SDS011;34959;49.310;8.646;2022-09-17T17:14:28;0.95;;;0.40;;
49139;SDS011;34959;49.310;8.646;2022-09-17T17:16:54;0.88;;;0.40;;
49139;SDS011;34959;49.310;8.646;2022-09-17T17:19:19;1.23;;;0.30;;
49139;SDS011;34959;49.310;8.646;2022-09-17T17:21:44;0.60;;;0.30;;
49139;SDS011;34959;49.310;8.646;2022-09-17T17:24:10;0.70;;;0.30;;
49139;SDS011;34959;49.310;8.646;2022-09-17T17:26:35;0.82;;;0.30;;
49139;SDS011;34959;49.310;8.646;2022-09-17T17:29:01;0.95;;;0.38;;
49139;SDS011;34959;49.310;8.646;2022-09-17T17:31:26;0.55;;;0.32;;
49139;SDS011;34959;49.310;8.646;2022-09-17T17:33:52;0.77;;;0.30;;
49139;SDS011;34959;49.310;8.646;2022-09-17T17:36:17;0.88;;;0.40;;
49139;SDS011;34959;49.310;8.646;2022-09-17T17:38:43;0.80;;;0.40;;
49139;SDS011;34959;49.310;8.646;2022-09-17T17:41:09;1.20;;;0.30;;
49139;SDS011;34959;49.310;8.646;2022-09-17T17:43:36;1.17;;;0.35;;
49139;SDS011;34959;49.310;8.646;2022-09-17T17:46:05;0.45;;;0.30;;
49139;SDS011;34959;49.310;8.646;2022-09-17T17:48:32;0.65;;;0.30;;
49139;SDS011;34959;49.310;8.646;2022-09-17T17:51:08;0.68;;;0.30;;
49139;SDS011;34959;49.310;8.646;2022-09-17T17:53:34;1.58;;;0.38;;
49139;SDS011;34959;49.310;8.646;2022-09-17T17:56:02;0.60;;;0.40;;